Fort Pike — WAA9418 — position and weather

sailwx.info

Track history (hours):
 
Tides and Currents Weather Stations Pressure Air Temp Water Temp Dewpoint Dewpoint Depression Visibility Wind Speed Wind Dir Waves Ship Positions

Fort Pike

Owner: Salisbury Towing Corporation, Chesapeak, VA. More information available from US FCC via Universal Licensing System and Coast Guard Vessel Documentation Center.

Last reported at 2016-Apr-28 13:17 UTC. Time now 2016-Apr-28 19:48 UTC.
Position N 38°55' W 076°25'.

Length 18 m; draft 10.5 m.

Type: Tug. MMSI: 366948310.

Date/timePositionNaut miles runAvg speedWind from/ knotsBaromVisibWave heightAir tempDewpointWater temp
2016-Apr-28 13:17N 38°55' W 076°25'4 4.6
2016-Apr-28 12:23N 38°59' W 076°23'4 4.6
2016-Apr-28 11:33N 39°03' W 076°22'4 4.4
2016-Apr-28 10:33N 39°07' W 076°20'5 4.8
2016-Apr-28 09:32N 39°11' W 076°17'4 4.6
2016-Apr-28 08:33N 39°15' W 076°14'5 4.7
2016-Apr-28 07:33N 39°19' W 076°12'4 4.3
2016-Apr-28 06:33N 39°22' W 076°08'4 4.0
2016-Apr-28 05:33N 39°24' W 076°03'3 3.2
2016-Apr-28 04:33N 39°27' W 076°03'3 3.1
2016-Apr-28 03:33N 39°30' W 076°05'3 2.8
2016-Apr-28 02:30N 39°33' W 076°05'23 3.0
2016-Apr-27 18:33N 39°13' W 076°21'6 6.2
2016-Apr-27 17:33N 39°12' W 076°29'6 6.2
2016-Apr-27 16:34N 39°15' W 076°36'0 0.1
2016-Apr-27 10:16N 39°15' W 076°36'0 0.0
2016-Apr-27 09:22N 39°15' W 076°36'0 0.0
2016-Apr-27 08:28N 39°15' W 076°36'0 0.0
2016-Apr-27 07:28N 39°15' W 076°36'0 0.0
2016-Apr-27 06:28N 39°15' W 076°36'0 0.0
2016-Apr-27 05:28N 39°15' W 076°36'0 0.0
2016-Apr-27 04:28N 39°15' W 076°36'0 0.0
2016-Apr-27 03:10N 39°15' W 076°36'1 1.9
2016-Apr-27 02:31N 39°16' W 076°35'0 0.0
2016-Apr-27 01:31N 39°16' W 076°35'0 0.0
2016-Apr-27 00:25N 39°16' W 076°35'0 0.0
2016-Apr-26 23:31N 39°16' W 076°35'0 0.0
2016-Apr-26 22:31N 39°16' W 076°35'0 0.0
2016-Apr-26 21:31N 39°16' W 076°35'0 0.0
2016-Apr-26 20:31N 39°16' W 076°35'0 0.0
2016-Apr-26 19:31N 39°16' W 076°35'0 0.5
2016-Apr-26 18:33N 39°15' W 076°35'2 0.7
2016-Apr-26 16:08N 39°14' W 076°34'1 2.2
2016-Apr-26 15:30N 39°15' W 076°34'1 1.0
2016-Apr-26 14:32N 39°16' W 076°35'0 0.0
2016-Apr-26 13:31N 39°16' W 076°35'0 0.0
2016-Apr-26 12:29N 39°16' W 076°35'1 1.2
2016-Apr-26 11:30N 39°15' W 076°36'2 1.9
2016-Apr-26 10:34N 39°15' W 076°34'6 6.1
2016-Apr-26 09:34N 39°11' W 076°28'6 5.4
2016-Apr-26 08:33N 39°06' W 076°24'5 5.3
2016-Apr-26 07:33N 39°01' W 076°23'5 5.4
2016-Apr-26 06:33N 38°56' W 076°25'41 2.1
2016-Apr-25 11:18N 38°37' W 075°38'1 0.8
2016-Apr-25 10:21N 38°38' W 075°37'3 3.5
2016-Apr-25 09:30N 38°35' W 075°40'11 4.9
2016-Apr-25 07:20N 38°28' W 075°49'3 4.1
2016-Apr-25 06:32N 38°25' W 075°51'5 4.7
2016-Apr-25 05:33N 38°21' W 075°53'6 5.5
2016-Apr-25 04:33N 38°15' W 075°56'47 4.7
2016-Apr-24 18:32N 38°56' W 076°24'13 6.7
2016-Apr-24 16:33N 39°10' W 076°25'6 6.3
2016-Apr-24 15:33N 39°13' W 076°32'1 1.1
2016-Apr-24 14:33N 39°14' W 076°33'3 2.3
2016-Apr-24 13:28N 39°15' W 076°36'0 0.5
2016-Apr-24 12:29N 39°15' W 076°36'2 2.6
2016-Apr-24 11:34N 39°14' W 076°33'1 1.4
2016-Apr-24 10:33N 39°13' W 076°35'1 0.6
2016-Apr-24 09:33N 39°13' W 076°34'2 2.3
2016-Apr-24 08:34N 39°12' W 076°31'5 5.2
2016-Apr-24 07:33N 39°11' W 076°25'13 6.1
2016-Apr-24 05:26N 39°20' W 076°12'6 6.9
2016-Apr-24 04:31N 39°23' W 076°05'5 5.0
2016-Apr-24 03:34N 39°28' W 076°03'5 4.9
2016-Apr-24 02:34N 39°33' W 076°05'2 1.9
2016-Apr-24 01:29N 39°34' W 076°06'0 0.0
2016-Apr-24 00:32N 39°34' W 076°06'0 0.0
2016-Apr-23 23:33N 39°34' W 076°06'4 3.5
2016-Apr-23 22:32N 39°31' W 076°05'6 5.9
2016-Apr-23 21:29N 39°25' W 076°03'18 6.2
2016-Apr-23 18:33N 39°13' W 076°21'6 6.5
2016-Apr-23 17:34N 39°12' W 076°29'6 5.9
2016-Apr-23 16:30N 39°15' W 076°35'1 0.6
2016-Apr-23 15:32N 39°15' W 076°36'1 0.2
2016-Apr-23 13:28N 39°15' W 076°36'0 0.5
2016-Apr-23 12:33N 39°15' W 076°36'0 0.0
2016-Apr-23 09:29N 39°15' W 076°36'0 0.0
2016-Apr-23 08:32N 39°15' W 076°36'0 0.0
2016-Apr-23 07:32N 39°15' W 076°36'0 0.0
2016-Apr-23 06:29N 39°15' W 076°36'0 0.0
2016-Apr-23 05:32N 39°15' W 076°36'0 0.0
2016-Apr-23 04:32N 39°15' W 076°36'0 0.0
2016-Apr-23 03:32N 39°15' W 076°36'0 0.0
2016-Apr-23 02:32N 39°15' W 076°36'0 0.0
2016-Apr-23 01:32N 39°15' W 076°36'0 0.0
2016-Apr-23 00:29N 39°15' W 076°36'0 0.0
2016-Apr-22 23:31N 39°15' W 076°36'0 0.0
2016-Apr-22 22:31N 39°15' W 076°36'0 0.0
2016-Apr-22 21:31N 39°15' W 076°36'0 0.0
2016-Apr-22 20:31N 39°15' W 076°36'0 0.0
2016-Apr-22 19:31N 39°15' W 076°36'0 0.0
2016-Apr-22 18:31N 39°15' W 076°36'0 0.0
2016-Apr-22 17:31N 39°15' W 076°36'1 0.6
2016-Apr-22 16:33N 39°15' W 076°35'1 1.1
2016-Apr-22 15:33N 39°15' W 076°36'1 0.5
2016-Apr-22 14:32N 39°15' W 076°36'0 0.1
2016-Apr-22 13:32N 39°15' W 076°36'0 0.1
2016-Apr-22 12:33N 39°15' W 076°36'1 0.6
2016-Apr-22 11:32N 39°15' W 076°35'4 4.0
2016-Apr-22 10:33N 39°13' W 076°31'5 4.7
2016-Apr-22 09:33N 39°11' W 076°26'13 4.3
2016-Apr-22 06:31N 39°19' W 076°13'6 6.1
2016-Apr-22 05:33N 39°23' W 076°07'5 4.9
2016-Apr-22 04:34N 39°26' W 076°02'5 4.6
2016-Apr-22 03:33N 39°30' W 076°05'3 2.6
2016-Apr-22 02:30N 39°33' W 076°04'2 2.1
2016-Apr-22 01:33N 39°34' W 076°06'0 0.1
2016-Apr-22 00:31N 39°34' W 076°06'0 0.0
2016-Apr-21 23:31N 39°34' W 076°06'0 0.0
2016-Apr-21 22:33N 39°34' W 076°06'6 6.2
2016-Apr-21 21:33N 39°28' W 076°04'19 6.2
2016-Apr-21 18:29N 39°12' W 076°16'6 6.6
2016-Apr-21 17:32N 39°07' W 076°20'134 7.0
2016-Apr-20 22:16N 36°52' W 076°20'4 5.4
2016-Apr-20 21:33N 36°50' W 076°16'0 0.1
2016-Apr-20 20:22N 36°50' W 076°16'0 0.1
2016-Apr-20 19:33N 36°50' W 076°16'0 0.2
2016-Apr-20 18:33N 36°51' W 076°16'1 1.1
2016-Apr-20 17:28N 36°50' W 076°17'0 0.0
2016-Apr-20 16:31N 36°50' W 076°17'0 0.0
2016-Apr-20 15:31N 36°50' W 076°17'0 0.0
2016-Apr-20 14:31N 36°50' W 076°17'0 0.0
2016-Apr-20 13:31N 36°50' W 076°17'0 0.0
2016-Apr-20 12:31N 36°50' W 076°17'0 0.0
2016-Apr-20 11:31N 36°50' W 076°17'0 0.0
2016-Apr-20 10:31N 36°50' W 076°17'0 0.0
2016-Apr-20 09:31N 36°50' W 076°17'0 0.0
2016-Apr-20 08:31N 36°50' W 076°17'0 0.0
2016-Apr-20 07:31N 36°50' W 076°17'0 0.0
2016-Apr-20 06:31N 36°50' W 076°17'0 0.0
2016-Apr-20 05:31N 36°50' W 076°17'0 0.0
2016-Apr-20 04:31N 36°50' W 076°17'0 0.0
2016-Apr-20 03:28N 36°50' W 076°17'0 0.0
2016-Apr-20 02:31N 36°50' W 076°17'0 0.0
2016-Apr-20 01:31N 36°50' W 076°17'0 0.1
2016-Apr-20 00:33N 36°50' W 076°18'0 0.4
2016-Apr-19 23:32N 36°50' W 076°17'18 2.5
2016-Apr-19 16:11N 37°07' W 076°08'15 5.9
2016-Apr-19 13:33N 36°55' W 076°20'6 5.7
2016-Apr-19 12:33N 36°50' W 076°17'1 0.6
2016-Apr-19 11:30N 36°50' W 076°16'1 1.0
2016-Apr-19 10:07N 36°50' W 076°17'0 0.0
2016-Apr-19 09:31N 36°50' W 076°17'0 0.0
2016-Apr-19 08:25N 36°50' W 076°17'0 0.0
2016-Apr-19 07:31N 36°50' W 076°17'0 0.0
2016-Apr-19 06:31N 36°50' W 076°17'0 0.0
2016-Apr-19 05:31N 36°50' W 076°17'0 0.0
2016-Apr-19 04:31N 36°50' W 076°17'0 0.0
2016-Apr-19 03:31N 36°50' W 076°17'0 0.0
2016-Apr-18 23:25N 36°50' W 076°17'0 0.0
2016-Apr-18 22:13N 36°50' W 076°17'0 0.0
2016-Apr-18 20:31N 36°50' W 076°17'0 0.0
2016-Apr-18 19:31N 36°50' W 076°17'0 0.0
2016-Apr-18 18:28N 36°50' W 076°17'0 0.0
2016-Apr-18 17:31N 36°50' W 076°17'0 0.0
2016-Apr-18 16:25N 36°50' W 076°17'0 0.0
2016-Apr-18 15:31N 36°50' W 076°17'0 0.0
2016-Apr-18 14:31N 36°50' W 076°17'0 0.0
2016-Apr-18 13:31N 36°50' W 076°17'  
Track history (hours):
 
Tides and Currents Weather Stations Pressure Air Temp Water Temp Dewpoint Dewpoint Depression Visibility Wind Speed Wind Dir Waves Ship Positions

Fort Pike

Owner: Salisbury Towing Corporation, Chesapeak, VA. More information available from US FCC via Universal Licensing System and Coast Guard Vessel Documentation Center.

Last reported at 2016-Apr-28 13:17 UTC. Time now 2016-Apr-28 19:48 UTC.
Position N 38°55' W 076°25'.

Length 18 m; draft 10.5 m.

Type: Tug. MMSI: 366948310.

Date/timePositionNaut miles runAvg speedWind from/ knotsBaromVisibWave heightAir tempDewpointWater temp
2016-Apr-28 13:17N 38°55' W 076°25'4 4.6
2016-Apr-28 12:23N 38°59' W 076°23'4 4.6
2016-Apr-28 11:33N 39°03' W 076°22'4 4.4
2016-Apr-28 10:33N 39°07' W 076°20'5 4.8
2016-Apr-28 09:32N 39°11' W 076°17'4 4.6
2016-Apr-28 08:33N 39°15' W 076°14'5 4.7
2016-Apr-28 07:33N 39°19' W 076°12'4 4.3
2016-Apr-28 06:33N 39°22' W 076°08'4 4.0
2016-Apr-28 05:33N 39°24' W 076°03'3 3.2
2016-Apr-28 04:33N 39°27' W 076°03'3 3.1
2016-Apr-28 03:33N 39°30' W 076°05'3 2.8
2016-Apr-28 02:30N 39°33' W 076°05'23 3.0
2016-Apr-27 18:33N 39°13' W 076°21'6 6.2
2016-Apr-27 17:33N 39°12' W 076°29'6 6.2
2016-Apr-27 16:34N 39°15' W 076°36'0 0.1
2016-Apr-27 10:16N 39°15' W 076°36'0 0.0
2016-Apr-27 09:22N 39°15' W 076°36'0 0.0
2016-Apr-27 08:28N 39°15' W 076°36'0 0.0
2016-Apr-27 07:28N 39°15' W 076°36'0 0.0
2016-Apr-27 06:28N 39°15' W 076°36'0 0.0
2016-Apr-27 05:28N 39°15' W 076°36'0 0.0
2016-Apr-27 04:28N 39°15' W 076°36'0 0.0
2016-Apr-27 03:10N 39°15' W 076°36'1 1.9
2016-Apr-27 02:31N 39°16' W 076°35'0 0.0
2016-Apr-27 01:31N 39°16' W 076°35'0 0.0
2016-Apr-27 00:25N 39°16' W 076°35'0 0.0
2016-Apr-26 23:31N 39°16' W 076°35'0 0.0
2016-Apr-26 22:31N 39°16' W 076°35'0 0.0
2016-Apr-26 21:31N 39°16' W 076°35'0 0.0
2016-Apr-26 20:31N 39°16' W 076°35'0 0.0
2016-Apr-26 19:31N 39°16' W 076°35'0 0.5
2016-Apr-26 18:33N 39°15' W 076°35'2 0.7
2016-Apr-26 16:08N 39°14' W 076°34'1 2.2
2016-Apr-26 15:30N 39°15' W 076°34'1 1.0
2016-Apr-26 14:32N 39°16' W 076°35'0 0.0
2016-Apr-26 13:31N 39°16' W 076°35'0 0.0
2016-Apr-26 12:29N 39°16' W 076°35'1 1.2
2016-Apr-26 11:30N 39°15' W 076°36'2 1.9
2016-Apr-26 10:34N 39°15' W 076°34'6 6.1
2016-Apr-26 09:34N 39°11' W 076°28'6 5.4
2016-Apr-26 08:33N 39°06' W 076°24'5 5.3
2016-Apr-26 07:33N 39°01' W 076°23'5 5.4
2016-Apr-26 06:33N 38°56' W 076°25'41 2.1
2016-Apr-25 11:18N 38°37' W 075°38'1 0.8
2016-Apr-25 10:21N 38°38' W 075°37'3 3.5
2016-Apr-25 09:30N 38°35' W 075°40'11 4.9
2016-Apr-25 07:20N 38°28' W 075°49'3 4.1
2016-Apr-25 06:32N 38°25' W 075°51'5 4.7
2016-Apr-25 05:33N 38°21' W 075°53'6 5.5
2016-Apr-25 04:33N 38°15' W 075°56'47 4.7
2016-Apr-24 18:32N 38°56' W 076°24'13 6.7
2016-Apr-24 16:33N 39°10' W 076°25'6 6.3
2016-Apr-24 15:33N 39°13' W 076°32'1 1.1
2016-Apr-24 14:33N 39°14' W 076°33'3 2.3
2016-Apr-24 13:28N 39°15' W 076°36'0 0.5
2016-Apr-24 12:29N 39°15' W 076°36'2 2.6
2016-Apr-24 11:34N 39°14' W 076°33'1 1.4
2016-Apr-24 10:33N 39°13' W 076°35'1 0.6
2016-Apr-24 09:33N 39°13' W 076°34'2 2.3
2016-Apr-24 08:34N 39°12' W 076°31'5 5.2
2016-Apr-24 07:33N 39°11' W 076°25'13 6.1
2016-Apr-24 05:26N 39°20' W 076°12'6 6.9
2016-Apr-24 04:31N 39°23' W 076°05'5 5.0
2016-Apr-24 03:34N 39°28' W 076°03'5 4.9
2016-Apr-24 02:34N 39°33' W 076°05'2 1.9
2016-Apr-24 01:29N 39°34' W 076°06'0 0.0
2016-Apr-24 00:32N 39°34' W 076°06'0 0.0
2016-Apr-23 23:33N 39°34' W 076°06'4 3.5
2016-Apr-23 22:32N 39°31' W 076°05'6 5.9
2016-Apr-23 21:29N 39°25' W 076°03'18 6.2
2016-Apr-23 18:33N 39°13' W 076°21'6 6.5
2016-Apr-23 17:34N 39°12' W 076°29'6 5.9
2016-Apr-23 16:30N 39°15' W 076°35'1 0.6
2016-Apr-23 15:32N 39°15' W 076°36'1 0.2
2016-Apr-23 13:28N 39°15' W 076°36'0 0.5
2016-Apr-23 12:33N 39°15' W 076°36'0 0.0
2016-Apr-23 09:29N 39°15' W 076°36'0 0.0
2016-Apr-23 08:32N 39°15' W 076°36'0 0.0
2016-Apr-23 07:32N 39°15' W 076°36'0 0.0
2016-Apr-23 06:29N 39°15' W 076°36'0 0.0
2016-Apr-23 05:32N 39°15' W 076°36'0 0.0
2016-Apr-23 04:32N 39°15' W 076°36'0 0.0
2016-Apr-23 03:32N 39°15' W 076°36'0 0.0
2016-Apr-23 02:32N 39°15' W 076°36'0 0.0
2016-Apr-23 01:32N 39°15' W 076°36'0 0.0
2016-Apr-23 00:29N 39°15' W 076°36'0 0.0
2016-Apr-22 23:31N 39°15' W 076°36'0 0.0
2016-Apr-22 22:31N 39°15' W 076°36'0 0.0
2016-Apr-22 21:31N 39°15' W 076°36'0 0.0
2016-Apr-22 20:31N 39°15' W 076°36'0 0.0
2016-Apr-22 19:31N 39°15' W 076°36'0 0.0
2016-Apr-22 18:31N 39°15' W 076°36'0 0.0
2016-Apr-22 17:31N 39°15' W 076°36'1 0.6
2016-Apr-22 16:33N 39°15' W 076°35'1 1.1
2016-Apr-22 15:33N 39°15' W 076°36'1 0.5
2016-Apr-22 14:32N 39°15' W 076°36'0 0.1
2016-Apr-22 13:32N 39°15' W 076°36'0 0.1
2016-Apr-22 12:33N 39°15' W 076°36'1 0.6
2016-Apr-22 11:32N 39°15' W 076°35'4 4.0
2016-Apr-22 10:33N 39°13' W 076°31'5 4.7
2016-Apr-22 09:33N 39°11' W 076°26'13 4.3
2016-Apr-22 06:31N 39°19' W 076°13'6 6.1
2016-Apr-22 05:33N 39°23' W 076°07'5 4.9
2016-Apr-22 04:34N 39°26' W 076°02'5 4.6
2016-Apr-22 03:33N 39°30' W 076°05'3 2.6
2016-Apr-22 02:30N 39°33' W 076°04'2 2.1
2016-Apr-22 01:33N 39°34' W 076°06'0 0.1
2016-Apr-22 00:31N 39°34' W 076°06'0 0.0
2016-Apr-21 23:31N 39°34' W 076°06'0 0.0
2016-Apr-21 22:33N 39°34' W 076°06'6 6.2
2016-Apr-21 21:33N 39°28' W 076°04'19 6.2
2016-Apr-21 18:29N 39°12' W 076°16'6 6.6
2016-Apr-21 17:32N 39°07' W 076°20'134 7.0
2016-Apr-20 22:16N 36°52' W 076°20'4 5.4
2016-Apr-20 21:33N 36°50' W 076°16'0 0.1
2016-Apr-20 20:22N 36°50' W 076°16'0 0.1
2016-Apr-20 19:33N 36°50' W 076°16'0 0.2
2016-Apr-20 18:33N 36°51' W 076°16'1 1.1
2016-Apr-20 17:28N 36°50' W 076°17'0 0.0
2016-Apr-20 16:31N 36°50' W 076°17'0 0.0
2016-Apr-20 15:31N 36°50' W 076°17'0 0.0
2016-Apr-20 14:31N 36°50' W 076°17'0 0.0
2016-Apr-20 13:31N 36°50' W 076°17'0 0.0
2016-Apr-20 12:31N 36°50' W 076°17'0 0.0
2016-Apr-20 11:31N 36°50' W 076°17'0 0.0
2016-Apr-20 10:31N 36°50' W 076°17'0 0.0
2016-Apr-20 09:31N 36°50' W 076°17'0 0.0
2016-Apr-20 08:31N 36°50' W 076°17'0 0.0
2016-Apr-20 07:31N 36°50' W 076°17'0 0.0
2016-Apr-20 06:31N 36°50' W 076°17'0 0.0
2016-Apr-20 05:31N 36°50' W 076°17'0 0.0
2016-Apr-20 04:31N 36°50' W 076°17'0 0.0
2016-Apr-20 03:28N 36°50' W 076°17'0 0.0
2016-Apr-20 02:31N 36°50' W 076°17'0 0.0
2016-Apr-20 01:31N 36°50' W 076°17'0 0.1
2016-Apr-20 00:33N 36°50' W 076°18'0 0.4
2016-Apr-19 23:32N 36°50' W 076°17'18 2.5
2016-Apr-19 16:11N 37°07' W 076°08'15 5.9
2016-Apr-19 13:33N 36°55' W 076°20'6 5.7
2016-Apr-19 12:33N 36°50' W 076°17'1 0.6
2016-Apr-19 11:30N 36°50' W 076°16'1 1.0
2016-Apr-19 10:07N 36°50' W 076°17'0 0.0
2016-Apr-19 09:31N 36°50' W 076°17'0 0.0
2016-Apr-19 08:25N 36°50' W 076°17'0 0.0
2016-Apr-19 07:31N 36°50' W 076°17'0 0.0
2016-Apr-19 06:31N 36°50' W 076°17'0 0.0
2016-Apr-19 05:31N 36°50' W 076°17'0 0.0
2016-Apr-19 04:31N 36°50' W 076°17'0 0.0
2016-Apr-19 03:31N 36°50' W 076°17'0 0.0
2016-Apr-18 23:25N 36°50' W 076°17'0 0.0
2016-Apr-18 22:13N 36°50' W 076°17'0 0.0
2016-Apr-18 20:31N 36°50' W 076°17'0 0.0
2016-Apr-18 19:31N 36°50' W 076°17'0 0.0
2016-Apr-18 18:28N 36°50' W 076°17'0 0.0
2016-Apr-18 17:31N 36°50' W 076°17'0 0.0
2016-Apr-18 16:25N 36°50' W 076°17'0 0.0
2016-Apr-18 15:31N 36°50' W 076°17'0 0.0
2016-Apr-18 14:31N 36°50' W 076°17'0 0.0
2016-Apr-18 13:31N 36°50' W 076°17'  

Dump ship's entire track history